sensor_id;sensor_type;location;lat;lon;timestamp;P1;durP1;ratioP1;P2;durP2;ratioP2
55025;SDS011;40925;45.666;18.994;2023-06-22T00:01:17;21.23;;;18.92;;
55025;SDS011;40925;45.666;18.994;2023-06-22T00:03:44;23.88;;;19.17;;
55025;SDS011;40925;45.666;18.994;2023-06-22T00:06:10;24.23;;;20.08;;
55025;SDS011;40925;45.666;18.994;2023-06-22T00:08:35;26.55;;;21.55;;
55025;SDS011;40925;45.666;18.994;2023-06-22T00:11:02;26.98;;;21.27;;
55025;SDS011;40925;45.666;18.994;2023-06-22T00:13:27;26.50;;;22.70;;
55025;SDS011;40925;45.666;18.994;2023-06-22T00:15:53;29.17;;;23.63;;
55025;SDS011;40925;45.666;18.994;2023-06-22T00:18:19;32.00;;;24.27;;
55025;SDS011;40925;45.666;18.994;2023-06-22T00:20:45;32.15;;;22.88;;
55025;SDS011;40925;45.666;18.994;2023-06-22T00:23:11;28.98;;;22.65;;
55025;SDS011;40925;45.666;18.994;2023-06-22T00:25:39;29.17;;;22.40;;
55025;SDS011;40925;45.666;18.994;2023-06-22T00:28:05;27.48;;;20.38;;
55025;SDS011;40925;45.666;18.994;2023-06-22T00:30:32;23.05;;;20.25;;
55025;SDS011;40925;45.666;18.994;2023-06-22T00:32:59;25.20;;;20.77;;
55025;SDS011;40925;45.666;18.994;2023-06-22T00:35:25;24.05;;;20.38;;
55025;SDS011;40925;45.666;18.994;2023-06-22T00:37:55;24.05;;;21.38;;
55025;SDS011;40925;45.666;18.994;2023-06-22T00:40:29;24.45;;;20.75;;
55025;SDS011;40925;45.666;18.994;2023-06-22T00:42:55;28.38;;;22.52;;
55025;SDS011;40925;45.666;18.994;2023-06-22T00:45:22;26.15;;;22.95;;
55025;SDS011;40925;45.666;18.994;2023-06-22T00:47:50;30.88;;;23.05;;
55025;SDS011;40925;45.666;18.994;2023-06-22T00:50:18;27.05;;;22.02;;
55025;SDS011;40925;45.666;18.994;2023-06-22T00:52:48;26.60;;;21.67;;
55025;SDS011;40925;45.666;18.994;2023-06-22T00:55:20;24.73;;;21.67;;
55025;SDS011;40925;45.666;18.994;2023-06-22T00:57:47;27.40;;;21.92;;
55025;SDS011;40925;45.666;18.994;2023-06-22T01:00:14;30.75;;;24.02;;
55025;SDS011;40925;45.666;18.994;2023-06-22T01:02:42;30.00;;;24.02;;
55025;SDS011;40925;45.666;18.994;2023-06-22T01:05:14;33.67;;;24.40;;
55025;SDS011;40925;45.666;18.994;2023-06-22T01:10:28;28.92;;;23.90;;
55025;SDS011;40925;45.666;18.994;2023-06-22T01:15:49;31.73;;;24.50;;
55025;SDS011;40925;45.666;18.994;2023-06-22T01:18:21;30.92;;;23.75;;
55025;SDS011;40925;45.666;18.994;2023-06-22T01:20:51;28.27;;;22.33;;
55025;SDS011;40925;45.666;18.994;2023-06-22T01:26:26;27.67;;;21.52;;
55025;SDS011;40925;45.666;18.994;2023-06-22T01:28:54;28.88;;;22.73;;
55025;SDS011;40925;45.666;18.994;2023-06-22T01:31:23;27.35;;;22.08;;
55025;SDS011;40925;45.666;18.994;2023-06-22T01:33:55;31.95;;;22.80;;
55025;SDS011;40925;45.666;18.994;2023-06-22T01:36:24;28.25;;;21.75;;
55025;SDS011;40925;45.666;18.994;2023-06-22T01:38:51;25.33;;;20.92;;
55025;SDS011;40925;45.666;18.994;2023-06-22T01:41:19;25.73;;;20.83;;
55025;SDS011;40925;45.666;18.994;2023-06-22T01:43:46;25.88;;;20.63;;
55025;SDS011;40925;45.666;18.994;2023-06-22T01:46:13;27.25;;;21.27;;
55025;SDS011;40925;45.666;18.994;2023-06-22T01:48:40;25.45;;;20.30;;
55025;SDS011;40925;45.666;18.994;2023-06-22T01:51:06;26.85;;;20.40;;
55025;SDS011;40925;45.666;18.994;2023-06-22T01:53:32;28.55;;;21.55;;
55025;SDS011;40925;45.666;18.994;2023-06-22T01:55:57;26.20;;;21.15;;
55025;SDS011;40925;45.666;18.994;2023-06-22T01:58:25;25.85;;;20.80;;
55025;SDS011;40925;45.666;18.994;2023-06-22T02:00:57;27.17;;;20.92;;
55025;SDS011;40925;45.666;18.994;2023-06-22T02:03:58;24.70;;;20.15;;
55025;SDS011;40925;45.666;18.994;2023-06-22T02:06:32;23.85;;;20.73;;
55025;SDS011;40925;45.666;18.994;2023-06-22T02:09:02;25.52;;;20.15;;
55025;SDS011;40925;45.666;18.994;2023-06-22T02:11:34;26.30;;;20.67;;
55025;SDS011;40925;45.666;18.994;2023-06-22T02:14:01;24.10;;;19.83;;
55025;SDS011;40925;45.666;18.994;2023-06-22T02:16:27;26.38;;;20.63;;
55025;SDS011;40925;45.666;18.994;2023-06-22T02:18:55;26.95;;;20.83;;
55025;SDS011;40925;45.666;18.994;2023-06-22T02:21:28;27.13;;;20.67;;
55025;SDS011;40925;45.666;18.994;2023-06-22T02:23:55;29.73;;;22.08;;
55025;SDS011;40925;45.666;18.994;2023-06-22T02:26:21;24.67;;;20.30;;
55025;SDS011;40925;45.666;18.994;2023-06-22T02:28:48;25.88;;;20.83;;
55025;SDS011;40925;45.666;18.994;2023-06-22T02:31:14;28.17;;;21.25;;
55025;SDS011;40925;45.666;18.994;2023-06-22T02:33:41;29.05;;;20.83;;
55025;SDS011;40925;45.666;18.994;2023-06-22T02:36:06;24.75;;;20.95;;
55025;SDS011;40925;45.666;18.994;2023-06-22T02:38:34;24.77;;;21.58;;
55025;SDS011;40925;45.666;18.994;2023-06-22T02:41:01;33.50;;;21.25;;
55025;SDS011;40925;45.666;18.994;2023-06-22T02:43:27;26.85;;;21.40;;
55025;SDS011;40925;45.666;18.994;2023-06-22T02:45:53;27.55;;;21.70;;
55025;SDS011;40925;45.666;18.994;2023-06-22T02:48:19;26.30;;;21.67;;
55025;SDS011;40925;45.666;18.994;2023-06-22T02:50:45;28.92;;;22.17;;
55025;SDS011;40925;45.666;18.994;2023-06-22T02:53:10;25.20;;;21.10;;
55025;SDS011;40925;45.666;18.994;2023-06-22T02:55:36;25.83;;;20.52;;
55025;SDS011;40925;45.666;18.994;2023-06-22T02:58:03;29.08;;;22.45;;
55025;SDS011;40925;45.666;18.994;2023-06-22T03:00:30;32.10;;;22.60;;
55025;SDS011;40925;45.666;18.994;2023-06-22T03:02:56;29.27;;;22.23;;
55025;SDS011;40925;45.666;18.994;2023-06-22T03:05:22;27.35;;;22.05;;
55025;SDS011;40925;45.666;18.994;2023-06-22T03:07:48;31.08;;;22.23;;
55025;SDS011;40925;45.666;18.994;2023-06-22T03:10:15;27.58;;;22.23;;
55025;SDS011;40925;45.666;18.994;2023-06-22T03:12:41;31.65;;;23.08;;
55025;SDS011;40925;45.666;18.994;2023-06-22T03:15:08;29.88;;;22.40;;
55025;SDS011;40925;45.666;18.994;2023-06-22T03:17:35;27.25;;;22.83;;
55025;SDS011;40925;45.666;18.994;2023-06-22T03:20:03;28.40;;;22.27;;
55025;SDS011;40925;45.666;18.994;2023-06-22T03:22:39;28.33;;;23.00;;
55025;SDS011;40925;45.666;18.994;2023-06-22T03:25:06;26.77;;;22.85;;
55025;SDS011;40925;45.666;18.994;2023-06-22T03:30:07;29.02;;;23.58;;
55025;SDS011;40925;45.666;18.994;2023-06-22T03:32:34;30.55;;;23.77;;
55025;SDS011;40925;45.666;18.994;2023-06-22T03:35:00;31.58;;;24.27;;
55025;SDS011;40925;45.666;18.994;2023-06-22T03:37:27;31.25;;;25.13;;
55025;SDS011;40925;45.666;18.994;2023-06-22T03:39:54;33.42;;;24.73;;
55025;SDS011;40925;45.666;18.994;2023-06-22T03:42:20;29.13;;;23.73;;
55025;SDS011;40925;45.666;18.994;2023-06-22T03:44:46;30.58;;;24.17;;
55025;SDS011;40925;45.666;18.994;2023-06-22T03:47:12;32.70;;;24.00;;
55025;SDS011;40925;45.666;18.994;2023-06-22T03:49:38;30.52;;;25.65;;
55025;SDS011;40925;45.666;18.994;2023-06-22T03:52:04;32.42;;;25.95;;
55025;SDS011;40925;45.666;18.994;2023-06-22T03:54:30;40.03;;;27.00;;
55025;SDS011;40925;45.666;18.994;2023-06-22T03:56:56;31.50;;;25.55;;
55025;SDS011;40925;45.666;18.994;2023-06-22T03:59:23;36.80;;;25.85;;
55025;SDS011;40925;45.666;18.994;2023-06-22T04:01:50;34.47;;;25.77;;
55025;SDS011;40925;45.666;18.994;2023-06-22T04:04:16;33.10;;;25.50;;
55025;SDS011;40925;45.666;18.994;2023-06-22T04:06:43;34.00;;;25.02;;
55025;SDS011;40925;45.666;18.994;2023-06-22T04:09:09;29.23;;;24.30;;
55025;SDS011;40925;45.666;18.994;2023-06-22T04:11:35;29.15;;;23.55;;
55025;SDS011;40925;45.666;18.994;2023-06-22T04:14:01;31.45;;;22.75;;
55025;SDS011;40925;45.666;18.994;2023-06-22T04:16:27;27.67;;;22.27;;
55025;SDS011;40925;45.666;18.994;2023-06-22T04:18:53;29.95;;;23.70;;
55025;SDS011;40925;45.666;18.994;2023-06-22T04:21:19;33.63;;;24.15;;
55025;SDS011;40925;45.666;18.994;2023-06-22T04:23:46;29.75;;;23.20;;
55025;SDS011;40925;45.666;18.994;2023-06-22T04:26:12;32.08;;;23.70;;
55025;SDS011;40925;45.666;18.994;2023-06-22T04:28:39;28.52;;;23.13;;
55025;SDS011;40925;45.666;18.994;2023-06-22T04:31:05;28.75;;;23.30;;
55025;SDS011;40925;45.666;18.994;2023-06-22T04:33:31;29.58;;;23.15;;
55025;SDS011;40925;45.666;18.994;2023-06-22T04:35:57;28.50;;;23.27;;
55025;SDS011;40925;45.666;18.994;2023-06-22T04:38:26;27.88;;;22.60;;
55025;SDS011;40925;45.666;18.994;2023-06-22T04:40:52;29.35;;;22.30;;
55025;SDS011;40925;45.666;18.994;2023-06-22T04:43:18;26.75;;;22.50;;
55025;SDS011;40925;45.666;18.994;2023-06-22T04:45:45;27.02;;;20.92;;
55025;SDS011;40925;45.666;18.994;2023-06-22T04:48:11;25.83;;;20.90;;
55025;SDS011;40925;45.666;18.994;2023-06-22T04:50:41;26.80;;;21.13;;
55025;SDS011;40925;45.666;18.994;2023-06-22T04:53:07;28.80;;;21.15;;
55025;SDS011;40925;45.666;18.994;2023-06-22T04:55:34;23.85;;;19.98;;
55025;SDS011;40925;45.666;18.994;2023-06-22T04:58:02;24.35;;;20.58;;
55025;SDS011;40925;45.666;18.994;2023-06-22T05:00:30;31.13;;;20.65;;
55025;SDS011;40925;45.666;18.994;2023-06-22T05:02:56;26.42;;;19.75;;
55025;SDS011;40925;45.666;18.994;2023-06-22T05:05:23;26.33;;;20.08;;
55025;SDS011;40925;45.666;18.994;2023-06-22T05:07:50;27.15;;;19.63;;
55025;SDS011;40925;45.666;18.994;2023-06-22T05:10:18;26.40;;;20.13;;
55025;SDS011;40925;45.666;18.994;2023-06-22T05:12:45;24.73;;;19.30;;
55025;SDS011;40925;45.666;18.994;2023-06-22T05:15:11;24.45;;;20.58;;
55025;SDS011;40925;45.666;18.994;2023-06-22T05:17:37;27.73;;;20.70;;
55025;SDS011;40925;45.666;18.994;2023-06-22T05:20:08;32.45;;;25.50;;
55025;SDS011;40925;45.666;18.994;2023-06-22T05:22:35;35.92;;;27.38;;
55025;SDS011;40925;45.666;18.994;2023-06-22T05:25:01;37.75;;;29.25;;
55025;SDS011;40925;45.666;18.994;2023-06-22T05:27:26;29.30;;;24.80;;
55025;SDS011;40925;45.666;18.994;2023-06-22T05:29:52;30.38;;;23.63;;
55025;SDS011;40925;45.666;18.994;2023-06-22T05:32:18;28.38;;;21.77;;
55025;SDS011;40925;45.666;18.994;2023-06-22T05:34:44;29.80;;;21.15;;
55025;SDS011;40925;45.666;18.994;2023-06-22T05:37:10;28.13;;;20.75;;
55025;SDS011;40925;45.666;18.994;2023-06-22T05:39:35;24.58;;;19.88;;
55025;SDS011;40925;45.666;18.994;2023-06-22T05:42:04;24.25;;;20.77;;
55025;SDS011;40925;45.666;18.994;2023-06-22T05:44:31;28.10;;;20.98;;
55025;SDS011;40925;45.666;18.994;2023-06-22T05:46:57;27.63;;;21.42;;
55025;SDS011;40925;45.666;18.994;2023-06-22T05:49:22;23.45;;;20.08;;
55025;SDS011;40925;45.666;18.994;2023-06-22T05:51:49;28.45;;;20.25;;
55025;SDS011;40925;45.666;18.994;2023-06-22T05:54:15;24.63;;;19.77;;
55025;SDS011;40925;45.666;18.994;2023-06-22T05:56:43;25.48;;;20.38;;
55025;SDS011;40925;45.666;18.994;2023-06-22T10:39:38;15.43;;;10.60;;
55025;SDS011;40925;45.666;18.994;2023-06-22T10:42:04;14.95;;;11.30;;
55025;SDS011;40925;45.666;18.994;2023-06-22T10:44:30;12.68;;;10.13;;
55025;SDS011;40925;45.666;18.994;2023-06-22T10:46:56;16.00;;;10.48;;
55025;SDS011;40925;45.666;18.994;2023-06-22T10:49:21;14.05;;;10.98;;
55025;SDS011;40925;45.666;18.994;2023-06-22T10:51:47;12.98;;;11.23;;
55025;SDS011;40925;45.666;18.994;2023-06-22T10:54:13;14.25;;;11.07;;
55025;SDS011;40925;45.666;18.994;2023-06-22T10:56:39;14.52;;;10.98;;
55025;SDS011;40925;45.666;18.994;2023-06-22T10:59:05;14.32;;;10.80;;
55025;SDS011;40925;45.666;18.994;2023-06-22T11:01:31;16.65;;;13.25;;
55025;SDS011;40925;45.666;18.994;2023-06-22T11:03:58;12.15;;;10.88;;
55025;SDS011;40925;45.666;18.994;2023-06-22T11:06:24;17.95;;;11.95;;
55025;SDS011;40925;45.666;18.994;2023-06-22T11:08:49;14.77;;;10.45;;
55025;SDS011;40925;45.666;18.994;2023-06-22T11:11:16;12.63;;;10.18;;
55025;SDS011;40925;45.666;18.994;2023-06-22T11:13:44;15.30;;;10.10;;
55025;SDS011;40925;45.666;18.994;2023-06-22T11:16:10;13.95;;;10.27;;
55025;SDS011;40925;45.666;18.994;2023-06-22T11:18:35;13.82;;;10.65;;
55025;SDS011;40925;45.666;18.994;2023-06-22T11:21:01;16.50;;;11.00;;
55025;SDS011;40925;45.666;18.994;2023-06-22T11:23:27;12.68;;;10.70;;
55025;SDS011;40925;45.666;18.994;2023-06-22T11:25:54;17.25;;;11.23;;
55025;SDS011;40925;45.666;18.994;2023-06-22T11:28:20;14.25;;;10.93;;
55025;SDS011;40925;45.666;18.994;2023-06-22T11:30:46;16.13;;;10.73;;
55025;SDS011;40925;45.666;18.994;2023-06-22T11:33:11;14.10;;;10.60;;
55025;SDS011;40925;45.666;18.994;2023-06-22T11:35:37;13.60;;;10.93;;
55025;SDS011;40925;45.666;18.994;2023-06-22T11:38:03;14.18;;;11.32;;
55025;SDS011;40925;45.666;18.994;2023-06-22T11:40:29;13.60;;;10.95;;
55025;SDS011;40925;45.666;18.994;2023-06-22T11:42:55;17.35;;;10.90;;
55025;SDS011;40925;45.666;18.994;2023-06-22T11:45:21;17.25;;;11.15;;
55025;SDS011;40925;45.666;18.994;2023-06-22T11:47:47;15.23;;;10.95;;
55025;SDS011;40925;45.666;18.994;2023-06-22T11:50:13;12.88;;;10.45;;
55025;SDS011;40925;45.666;18.994;2023-06-22T11:52:41;14.00;;;11.02;;
55025;SDS011;40925;45.666;18.994;2023-06-22T11:55:07;13.60;;;11.27;;
55025;SDS011;40925;45.666;18.994;2023-06-22T11:57:33;13.65;;;10.70;;
55025;SDS011;40925;45.666;18.994;2023-06-22T12:00:00;17.33;;;10.68;;
55025;SDS011;40925;45.666;18.994;2023-06-22T12:02:31;13.52;;;11.30;;
55025;SDS011;40925;45.666;18.994;2023-06-22T12:04:57;13.95;;;10.98;;
55025;SDS011;40925;45.666;18.994;2023-06-22T12:07:23;12.20;;;10.90;;
55025;SDS011;40925;45.666;18.994;2023-06-22T12:09:49;13.68;;;10.52;;
55025;SDS011;40925;45.666;18.994;2023-06-22T12:12:15;12.35;;;10.40;;
55025;SDS011;40925;45.666;18.994;2023-06-22T12:14:41;13.20;;;10.75;;
55025;SDS011;40925;45.666;18.994;2023-06-22T12:17:07;17.98;;;10.43;;
55025;SDS011;40925;45.666;18.994;2023-06-22T12:19:33;14.43;;;10.35;;
55025;SDS011;40925;45.666;18.994;2023-06-22T12:21:59;18.33;;;11.15;;
55025;SDS011;40925;45.666;18.994;2023-06-22T12:24:25;14.63;;;10.55;;
55025;SDS011;40925;45.666;18.994;2023-06-22T12:26:51;14.52;;;10.90;;
55025;SDS011;40925;45.666;18.994;2023-06-22T12:29:17;13.85;;;10.23;;
55025;SDS011;40925;45.666;18.994;2023-06-22T12:31:43;14.25;;;10.38;;
55025;SDS011;40925;45.666;18.994;2023-06-22T12:34:09;14.32;;;10.23;;
55025;SDS011;40925;45.666;18.994;2023-06-22T12:36:35;11.32;;;9.98;;
55025;SDS011;40925;45.666;18.994;2023-06-22T12:39:01;12.35;;;9.93;;
55025;SDS011;40925;45.666;18.994;2023-06-22T12:41:27;13.32;;;8.70;;
55025;SDS011;40925;45.666;18.994;2023-06-22T12:43:53;12.27;;;8.35;;
55025;SDS011;40925;45.666;18.994;2023-06-22T12:46:18;12.63;;;9.63;;
55025;SDS011;40925;45.666;18.994;2023-06-22T12:48:44;10.55;;;9.18;;
55025;SDS011;40925;45.666;18.994;2023-06-22T12:51:10;12.75;;;9.30;;
55025;SDS011;40925;45.666;18.994;2023-06-22T12:53:35;10.25;;;9.18;;
55025;SDS011;40925;45.666;18.994;2023-06-22T12:56:01;13.00;;;8.70;;
55025;SDS011;40925;45.666;18.994;2023-06-22T12:58:27;11.85;;;8.73;;
55025;SDS011;40925;45.666;18.994;2023-06-22T13:00:52;12.98;;;8.82;;
55025;SDS011;40925;45.666;18.994;2023-06-22T13:03:18;13.82;;;8.63;;
55025;SDS011;40925;45.666;18.994;2023-06-22T13:05:44;14.80;;;8.93;;
55025;SDS011;40925;45.666;18.994;2023-06-22T13:08:10;14.52;;;8.77;;
55025;SDS011;40925;45.666;18.994;2023-06-22T13:10:36;19.50;;;14.77;;
55025;SDS011;40925;45.666;18.994;2023-06-22T13:13:01;13.85;;;9.85;;
55025;SDS011;40925;45.666;18.994;2023-06-22T13:15:28;11.88;;;9.10;;
55025;SDS011;40925;45.666;18.994;2023-06-22T13:17:54;11.50;;;9.52;;
55025;SDS011;40925;45.666;18.994;2023-06-22T13:20:20;12.48;;;9.43;;
55025;SDS011;40925;45.666;18.994;2023-06-22T13:22:46;13.18;;;9.90;;
55025;SDS011;40925;45.666;18.994;2023-06-22T13:25:12;14.23;;;10.05;;
55025;SDS011;40925;45.666;18.994;2023-06-22T13:27:39;15.68;;;9.75;;
55025;SDS011;40925;45.666;18.994;2023-06-22T13:30:05;14.10;;;10.18;;
55025;SDS011;40925;45.666;18.994;2023-06-22T13:32:31;12.35;;;9.60;;
55025;SDS011;40925;45.666;18.994;2023-06-22T13:34:57;11.95;;;10.20;;
55025;SDS011;40925;45.666;18.994;2023-06-22T13:37:23;13.20;;;9.82;;
55025;SDS011;40925;45.666;18.994;2023-06-22T13:39:48;12.68;;;9.63;;
55025;SDS011;40925;45.666;18.994;2023-06-22T13:42:14;11.93;;;9.63;;
55025;SDS011;40925;45.666;18.994;2023-06-22T13:44:40;17.05;;;9.75;;
55025;SDS011;40925;45.666;18.994;2023-06-22T13:47:06;13.07;;;10.05;;
55025;SDS011;40925;45.666;18.994;2023-06-22T13:49:32;14.00;;;10.05;;
55025;SDS011;40925;45.666;18.994;2023-06-22T13:51:57;12.70;;;9.90;;
55025;SDS011;40925;45.666;18.994;2023-06-22T13:54:24;12.43;;;9.52;;
55025;SDS011;40925;45.666;18.994;2023-06-22T13:56:49;16.88;;;9.98;;
55025;SDS011;40925;45.666;18.994;2023-06-22T13:59:15;13.00;;;9.63;;
55025;SDS011;40925;45.666;18.994;2023-06-22T14:01:41;13.13;;;9.68;;
55025;SDS011;40925;45.666;18.994;2023-06-22T14:04:08;12.32;;;9.20;;
55025;SDS011;40925;45.666;18.994;2023-06-22T14:06:34;14.35;;;9.32;;
55025;SDS011;40925;45.666;18.994;2023-06-22T14:08:59;15.48;;;10.25;;
55025;SDS011;40925;45.666;18.994;2023-06-22T14:11:25;12.10;;;9.63;;
55025;SDS011;40925;45.666;18.994;2023-06-22T14:13:51;13.23;;;10.30;;
55025;SDS011;40925;45.666;18.994;2023-06-22T14:16:17;13.40;;;10.20;;
55025;SDS011;40925;45.666;18.994;2023-06-22T14:18:42;15.35;;;9.85;;
55025;SDS011;40925;45.666;18.994;2023-06-22T14:21:09;13.85;;;10.77;;
55025;SDS011;40925;45.666;18.994;2023-06-22T14:23:38;12.68;;;9.88;;
55025;SDS011;40925;45.666;18.994;2023-06-22T14:26:04;13.18;;;9.75;;
55025;SDS011;40925;45.666;18.994;2023-06-22T14:28:29;13.48;;;9.73;;
55025;SDS011;40925;45.666;18.994;2023-06-22T14:30:55;14.73;;;9.70;;
55025;SDS011;40925;45.666;18.994;2023-06-22T14:33:21;14.43;;;10.10;;
55025;SDS011;40925;45.666;18.994;2023-06-22T14:35:47;14.52;;;9.45;;
55025;SDS011;40925;45.666;18.994;2023-06-22T14:38:14;18.90;;;10.88;;
55025;SDS011;40925;45.666;18.994;2023-06-22T14:40:39;11.80;;;10.60;;
55025;SDS011;40925;45.666;18.994;2023-06-22T14:43:05;15.73;;;10.60;;
55025;SDS011;40925;45.666;18.994;2023-06-22T14:45:31;14.52;;;11.02;;
55025;SDS011;40925;45.666;18.994;2023-06-22T14:47:57;17.45;;;10.70;;
55025;SDS011;40925;45.666;18.994;2023-06-22T14:50:22;15.07;;;10.90;;
55025;SDS011;40925;45.666;18.994;2023-06-22T14:52:48;14.32;;;10.30;;
55025;SDS011;40925;45.666;18.994;2023-06-22T14:55:14;14.10;;;10.77;;
55025;SDS011;40925;45.666;18.994;2023-06-22T14:57:40;16.95;;;10.70;;
55025;SDS011;40925;45.666;18.994;2023-06-22T15:00:06;16.05;;;11.48;;
55025;SDS011;40925;45.666;18.994;2023-06-22T15:02:32;16.17;;;11.05;;
55025;SDS011;40925;45.666;18.994;2023-06-22T15:04:58;16.85;;;11.35;;
55025;SDS011;40925;45.666;18.994;2023-06-22T15:07:23;12.90;;;11.00;;
55025;SDS011;40925;45.666;18.994;2023-06-22T15:09:49;17.15;;;10.90;;
55025;SDS011;40925;45.666;18.994;2023-06-22T15:12:15;15.30;;;10.95;;
55025;SDS011;40925;45.666;18.994;2023-06-22T15:14:41;14.63;;;11.27;;
55025;SDS011;40925;45.666;18.994;2023-06-22T15:17:07;13.20;;;10.52;;
55025;SDS011;40925;45.666;18.994;2023-06-22T15:19:34;13.95;;;11.23;;
55025;SDS011;40925;45.666;18.994;2023-06-22T15:22:01;15.30;;;11.20;;
55025;SDS011;40925;45.666;18.994;2023-06-22T15:24:28;15.52;;;10.75;;
55025;SDS011;40925;45.666;18.994;2023-06-22T15:26:53;12.73;;;10.70;;
55025;SDS011;40925;45.666;18.994;2023-06-22T15:29:20;16.98;;;11.32;;
55025;SDS011;40925;45.666;18.994;2023-06-22T15:31:46;16.25;;;11.50;;
55025;SDS011;40925;45.666;18.994;2023-06-22T15:34:12;16.40;;;11.65;;
55025;SDS011;40925;45.666;18.994;2023-06-22T15:36:38;14.02;;;11.57;;
55025;SDS011;40925;45.666;18.994;2023-06-22T15:39:04;15.68;;;11.77;;
55025;SDS011;40925;45.666;18.994;2023-06-22T15:41:30;18.55;;;11.68;;
55025;SDS011;40925;45.666;18.994;2023-06-22T15:43:56;16.52;;;12.90;;
55025;SDS011;40925;45.666;18.994;2023-06-22T15:46:22;15.80;;;11.77;;
55025;SDS011;40925;45.666;18.994;2023-06-22T15:48:47;15.18;;;11.82;;
55025;SDS011;40925;45.666;18.994;2023-06-22T15:51:13;17.50;;;11.95;;
55025;SDS011;40925;45.666;18.994;2023-06-22T15:53:42;16.38;;;11.35;;
55025;SDS011;40925;45.666;18.994;2023-06-22T15:56:09;17.10;;;11.57;;
55025;SDS011;40925;45.666;18.994;2023-06-22T15:58:35;16.80;;;11.40;;
55025;SDS011;40925;45.666;18.994;2023-06-22T16:01:02;15.75;;;11.25;;
55025;SDS011;40925;45.666;18.994;2023-06-22T16:03:31;15.85;;;11.70;;
55025;SDS011;40925;45.666;18.994;2023-06-22T16:05:57;17.25;;;11.20;;
55025;SDS011;40925;45.666;18.994;2023-06-22T16:08:23;14.35;;;11.25;;
55025;SDS011;40925;45.666;18.994;2023-06-22T16:10:50;18.13;;;11.07;;
55025;SDS011;40925;45.666;18.994;2023-06-22T16:13:17;16.20;;;12.02;;
55025;SDS011;40925;45.666;18.994;2023-06-22T16:15:43;16.30;;;11.73;;
55025;SDS011;40925;45.666;18.994;2023-06-22T16:18:20;14.65;;;11.85;;
55025;SDS011;40925;45.666;18.994;2023-06-22T16:20:46;19.20;;;12.25;;
55025;SDS011;40925;45.666;18.994;2023-06-22T16:23:12;15.73;;;12.35;;
55025;SDS011;40925;45.666;18.994;2023-06-22T16:25:38;15.10;;;11.85;;
55025;SDS011;40925;45.666;18.994;2023-06-22T16:28:04;13.52;;;11.55;;
55025;SDS011;40925;45.666;18.994;2023-06-22T16:30:30;13.23;;;11.68;;
55025;SDS011;40925;45.666;18.994;2023-06-22T16:32:56;16.33;;;12.35;;
55025;SDS011;40925;45.666;18.994;2023-06-22T16:35:26;15.93;;;12.05;;
55025;SDS011;40925;45.666;18.994;2023-06-22T16:37:54;16.75;;;11.82;;
55025;SDS011;40925;45.666;18.994;2023-06-22T16:40:21;17.20;;;11.80;;
55025;SDS011;40925;45.666;18.994;2023-06-22T16:42:47;17.63;;;12.00;;
55025;SDS011;40925;45.666;18.994;2023-06-22T16:45:14;16.40;;;11.85;;
55025;SDS011;40925;45.666;18.994;2023-06-22T16:47:42;15.18;;;11.48;;
55025;SDS011;40925;45.666;18.994;2023-06-22T16:50:10;16.02;;;11.77;;
55025;SDS011;40925;45.666;18.994;2023-06-22T16:52:36;16.27;;;12.43;;
55025;SDS011;40925;45.666;18.994;2023-06-22T16:55:03;14.95;;;11.63;;
55025;SDS011;40925;45.666;18.994;2023-06-22T16:57:32;14.55;;;11.90;;
55025;SDS011;40925;45.666;18.994;2023-06-22T16:59:59;14.57;;;11.18;;
55025;SDS011;40925;45.666;18.994;2023-06-22T17:02:25;17.92;;;11.15;;
55025;SDS011;40925;45.666;18.994;2023-06-22T17:04:53;14.40;;;11.55;;
55025;SDS011;40925;45.666;18.994;2023-06-22T17:07:20;16.85;;;11.90;;
55025;SDS011;40925;45.666;18.994;2023-06-22T17:09:50;18.73;;;12.63;;
55025;SDS011;40925;45.666;18.994;2023-06-22T17:12:16;17.25;;;12.10;;
55025;SDS011;40925;45.666;18.994;2023-06-22T17:14:48;15.63;;;11.70;;
55025;SDS011;40925;45.666;18.994;2023-06-22T17:17:16;17.00;;;11.90;;
55025;SDS011;40925;45.666;18.994;2023-06-22T17:19:42;19.60;;;11.88;;
55025;SDS011;40925;45.666;18.994;2023-06-22T17:22:12;17.33;;;11.48;;
55025;SDS011;40925;45.666;18.994;2023-06-22T17:24:39;13.88;;;12.38;;
55025;SDS011;40925;45.666;18.994;2023-06-22T17:27:06;14.32;;;11.40;;
55025;SDS011;40925;45.666;18.994;2023-06-22T17:29:32;15.90;;;12.20;;
55025;SDS011;40925;45.666;18.994;2023-06-22T17:31:58;15.40;;;11.75;;
55025;SDS011;40925;45.666;18.994;2023-06-22T17:34:28;16.42;;;11.65;;
55025;SDS011;40925;45.666;18.994;2023-06-22T17:36:54;22.33;;;12.90;;
55025;SDS011;40925;45.666;18.994;2023-06-22T17:39:23;18.48;;;12.40;;
55025;SDS011;40925;45.666;18.994;2023-06-22T17:41:50;19.15;;;12.43;;
55025;SDS011;40925;45.666;18.994;2023-06-22T17:44:19;22.20;;;13.63;;
55025;SDS011;40925;45.666;18.994;2023-06-22T17:46:53;21.48;;;12.43;;
55025;SDS011;40925;45.666;18.994;2023-06-22T17:49:19;26.00;;;13.10;;
55025;SDS011;40925;45.666;18.994;2023-06-22T17:51:46;19.63;;;12.48;;
55025;SDS011;40925;45.666;18.994;2023-06-22T17:54:15;18.70;;;13.55;;
55025;SDS011;40925;45.666;18.994;2023-06-22T17:56:41;19.48;;;13.55;;
55025;SDS011;40925;45.666;18.994;2023-06-22T17:59:07;19.02;;;13.18;;
55025;SDS011;40925;45.666;18.994;2023-06-22T18:01:36;22.75;;;13.52;;
55025;SDS011;40925;45.666;18.994;2023-06-22T18:04:10;18.02;;;13.40;;
55025;SDS011;40925;45.666;18.994;2023-06-22T18:06:40;21.48;;;14.23;;
55025;SDS011;40925;45.666;18.994;2023-06-22T18:09:08;18.17;;;13.32;;
55025;SDS011;40925;45.666;18.994;2023-06-22T18:11:36;15.70;;;12.55;;
55025;SDS011;40925;45.666;18.994;2023-06-22T18:14:04;18.08;;;13.60;;
55025;SDS011;40925;45.666;18.994;2023-06-22T18:16:32;16.80;;;13.80;;
55025;SDS011;40925;45.666;18.994;2023-06-22T18:19:00;17.73;;;13.73;;
55025;SDS011;40925;45.666;18.994;2023-06-22T18:21:26;22.70;;;13.57;;
55025;SDS011;40925;45.666;18.994;2023-06-22T18:23:53;23.27;;;14.25;;
55025;SDS011;40925;45.666;18.994;2023-06-22T18:26:20;21.77;;;13.85;;
55025;SDS011;40925;45.666;18.994;2023-06-22T18:28:48;25.95;;;14.13;;
55025;SDS011;40925;45.666;18.994;2023-06-22T18:31:16;20.55;;;14.02;;
55025;SDS011;40925;45.666;18.994;2023-06-22T18:33:44;19.10;;;13.52;;
55025;SDS011;40925;45.666;18.994;2023-06-22T18:36:10;21.23;;;13.82;;
55025;SDS011;40925;45.666;18.994;2023-06-22T18:38:40;26.70;;;14.63;;
55025;SDS011;40925;45.666;18.994;2023-06-22T18:41:19;24.45;;;14.80;;
55025;SDS011;40925;45.666;18.994;2023-06-22T18:43:59;22.90;;;14.52;;
55025;SDS011;40925;45.666;18.994;2023-06-22T18:46:29;21.05;;;14.25;;
55025;SDS011;40925;45.666;18.994;2023-06-22T18:49:02;20.63;;;15.57;;
55025;SDS011;40925;45.666;18.994;2023-06-22T18:54:41;23.55;;;15.68;;
55025;SDS011;40925;45.666;18.994;2023-06-22T18:57:21;20.30;;;15.10;;
55025;SDS011;40925;45.666;18.994;2023-06-22T19:12:55;25.75;;;17.17;;
55025;SDS011;40925;45.666;18.994;2023-06-22T19:15:28;24.10;;;17.85;;
55025;SDS011;40925;45.666;18.994;2023-06-22T19:18:02;28.98;;;23.02;;